Terminal Aerodrome Forecast
Issued by NWS

Home | Current Version | Previous Version | Text Only | Print | Product List | Glossary On
Versions: 1 2 3 4 5 6 7 8 9 10 11 12 13 14 15 16 17 18 19 20 21
000
FTUS44 KEWX 271757 CCA
TAFSSF
TAF COR
KSSF 271757Z 2718/2818 VRB03KT P6SM SCT050
     FM272000 08005KT P6SM VCTS BKN050CB
     FM280000 10007KT P6SM SCT050
     FM281000 VRB03KT P6SM SCT015
      TEMPO 2811/2815 BKN015
     FM281700 05005KT P6SM SCT025 BKN040=

USA.gov is the U.S. government's official web portal to all federal, state and local government web resources and services.